sensor_id;sensor_type;location;lat;lon;timestamp;P1;durP1;ratioP1;P2;durP2;ratioP2
47659;SDS011;33403;43.608;1.458;2022-12-08T00:02:23;32.80;;;20.97;;
47659;SDS011;33403;43.608;1.458;2022-12-08T00:04:49;31.97;;;20.73;;
47659;SDS011;33403;43.608;1.458;2022-12-08T00:07:33;32.77;;;21.27;;
47659;SDS011;33403;43.608;1.458;2022-12-08T00:10:21;31.53;;;20.90;;
47659;SDS011;33403;43.608;1.458;2022-12-08T00:12:47;33.93;;;20.73;;
47659;SDS011;33403;43.608;1.458;2022-12-08T00:15:13;30.70;;;20.80;;
47659;SDS011;33403;43.608;1.458;2022-12-08T00:17:39;32.37;;;19.53;;
47659;SDS011;33403;43.608;1.458;2022-12-08T00:20:05;28.40;;;19.47;;
47659;SDS011;33403;43.608;1.458;2022-12-08T00:22:31;26.90;;;17.93;;
47659;SDS011;33403;43.608;1.458;2022-12-08T00:24:58;28.53;;;17.63;;
47659;SDS011;33403;43.608;1.458;2022-12-08T00:27:24;23.93;;;15.93;;
47659;SDS011;33403;43.608;1.458;2022-12-08T00:29:51;25.77;;;17.20;;
47659;SDS011;33403;43.608;1.458;2022-12-08T00:32:17;25.50;;;17.23;;
47659;SDS011;33403;43.608;1.458;2022-12-08T00:34:43;22.90;;;15.77;;
47659;SDS011;33403;43.608;1.458;2022-12-08T00:37:09;23.67;;;15.53;;
47659;SDS011;33403;43.608;1.458;2022-12-08T00:39:35;21.87;;;14.93;;
47659;SDS011;33403;43.608;1.458;2022-12-08T00:42:01;21.70;;;14.40;;
47659;SDS011;33403;43.608;1.458;2022-12-08T00:44:36;23.27;;;14.63;;
47659;SDS011;33403;43.608;1.458;2022-12-08T00:47:02;22.83;;;14.70;;
47659;SDS011;33403;43.608;1.458;2022-12-08T00:49:28;21.50;;;14.80;;
47659;SDS011;33403;43.608;1.458;2022-12-08T00:51:54;20.97;;;13.87;;
47659;SDS011;33403;43.608;1.458;2022-12-08T00:54:20;21.43;;;14.40;;
47659;SDS011;33403;43.608;1.458;2022-12-08T00:56:47;23.03;;;14.07;;
47659;SDS011;33403;43.608;1.458;2022-12-08T00:59:13;21.17;;;14.13;;
47659;SDS011;33403;43.608;1.458;2022-12-08T01:01:39;19.63;;;13.60;;
47659;SDS011;33403;43.608;1.458;2022-12-08T01:04:06;21.03;;;14.33;;
47659;SDS011;33403;43.608;1.458;2022-12-08T01:06:35;22.57;;;14.37;;
47659;SDS011;33403;43.608;1.458;2022-12-08T01:09:02;19.70;;;13.43;;
47659;SDS011;33403;43.608;1.458;2022-12-08T01:11:28;19.27;;;13.20;;
47659;SDS011;33403;43.608;1.458;2022-12-08T01:13:54;21.73;;;14.03;;
47659;SDS011;33403;43.608;1.458;2022-12-08T01:16:22;20.60;;;13.87;;
47659;SDS011;33403;43.608;1.458;2022-12-08T01:18:48;21.77;;;14.47;;
47659;SDS011;33403;43.608;1.458;2022-12-08T01:21:14;19.83;;;13.63;;
47659;SDS011;33403;43.608;1.458;2022-12-08T01:23:40;23.80;;;15.20;;
47659;SDS011;33403;43.608;1.458;2022-12-08T01:26:07;20.93;;;13.40;;
47659;SDS011;33403;43.608;1.458;2022-12-08T01:28:33;19.87;;;13.50;;
47659;SDS011;33403;43.608;1.458;2022-12-08T01:30:59;22.00;;;13.77;;
47659;SDS011;33403;43.608;1.458;2022-12-08T01:33:26;19.57;;;13.43;;
47659;SDS011;33403;43.608;1.458;2022-12-08T01:35:52;19.73;;;13.30;;
47659;SDS011;33403;43.608;1.458;2022-12-08T01:38:19;18.37;;;12.90;;
47659;SDS011;33403;43.608;1.458;2022-12-08T01:40:46;19.53;;;13.00;;
47659;SDS011;33403;43.608;1.458;2022-12-08T01:43:16;19.20;;;12.80;;
47659;SDS011;33403;43.608;1.458;2022-12-08T01:45:42;19.43;;;13.27;;
47659;SDS011;33403;43.608;1.458;2022-12-08T01:48:19;17.40;;;12.33;;
47659;SDS011;33403;43.608;1.458;2022-12-08T01:50:46;23.17;;;13.20;;
47659;SDS011;33403;43.608;1.458;2022-12-08T01:53:13;18.93;;;12.90;;
47659;SDS011;33403;43.608;1.458;2022-12-08T01:55:42;19.90;;;13.23;;
47659;SDS011;33403;43.608;1.458;2022-12-08T01:58:14;20.43;;;13.07;;
47659;SDS011;33403;43.608;1.458;2022-12-08T02:00:41;21.33;;;13.40;;
47659;SDS011;33403;43.608;1.458;2022-12-08T02:03:11;20.83;;;13.77;;
47659;SDS011;33403;43.608;1.458;2022-12-08T02:05:38;21.77;;;14.37;;
47659;SDS011;33403;43.608;1.458;2022-12-08T02:08:06;19.87;;;13.20;;
47659;SDS011;33403;43.608;1.458;2022-12-08T02:10:33;21.13;;;13.87;;
47659;SDS011;33403;43.608;1.458;2022-12-08T02:13:00;23.37;;;13.67;;
47659;SDS011;33403;43.608;1.458;2022-12-08T02:15:37;25.60;;;14.77;;
47659;SDS011;33403;43.608;1.458;2022-12-08T02:23:35;26.53;;;15.00;;
47659;SDS011;33403;43.608;1.458;2022-12-08T02:26:22;24.33;;;14.80;;
47659;SDS011;33403;43.608;1.458;2022-12-08T02:31:41;23.80;;;13.97;;
47659;SDS011;33403;43.608;1.458;2022-12-08T02:34:16;23.10;;;13.90;;
47659;SDS011;33403;43.608;1.458;2022-12-08T02:36:46;21.53;;;13.57;;
47659;SDS011;33403;43.608;1.458;2022-12-08T02:42:04;21.97;;;13.47;;
47659;SDS011;33403;43.608;1.458;2022-12-08T02:44:35;19.53;;;13.07;;
47659;SDS011;33403;43.608;1.458;2022-12-08T02:47:13;23.27;;;12.60;;
47659;SDS011;33403;43.608;1.458;2022-12-08T02:49:40;20.87;;;12.63;;
47659;SDS011;33403;43.608;1.458;2022-12-08T02:52:52;18.27;;;12.77;;
47659;SDS011;33403;43.608;1.458;2022-12-08T02:54:56;20.03;;;12.73;;
47659;SDS011;33403;43.608;1.458;2022-12-08T03:02:35;17.47;;;12.07;;
47659;SDS011;33403;43.608;1.458;2022-12-08T03:07:51;21.37;;;12.97;;
47659;SDS011;33403;43.608;1.458;2022-12-08T03:10:20;18.93;;;12.37;;
47659;SDS011;33403;43.608;1.458;2022-12-08T03:12:51;19.60;;;12.50;;
47659;SDS011;33403;43.608;1.458;2022-12-08T03:15:21;19.20;;;11.97;;
47659;SDS011;33403;43.608;1.458;2022-12-08T03:17:52;18.13;;;12.00;;
47659;SDS011;33403;43.608;1.458;2022-12-08T03:20:20;18.23;;;11.63;;
47659;SDS011;33403;43.608;1.458;2022-12-08T03:22:48;15.47;;;10.93;;
47659;SDS011;33403;43.608;1.458;2022-12-08T03:25:16;17.10;;;11.17;;
47659;SDS011;33403;43.608;1.458;2022-12-08T03:27:44;18.63;;;10.93;;
47659;SDS011;33403;43.608;1.458;2022-12-08T03:30:10;17.40;;;10.87;;
47659;SDS011;33403;43.608;1.458;2022-12-08T03:35:10;16.80;;;10.40;;
47659;SDS011;33403;43.608;1.458;2022-12-08T03:37:38;16.97;;;10.17;;
47659;SDS011;33403;43.608;1.458;2022-12-08T03:40:05;16.03;;;10.40;;
47659;SDS011;33403;43.608;1.458;2022-12-08T03:42:32;17.07;;;10.73;;
47659;SDS011;33403;43.608;1.458;2022-12-08T03:44:58;14.73;;;10.17;;
47659;SDS011;33403;43.608;1.458;2022-12-08T03:47:24;14.77;;;10.50;;
47659;SDS011;33403;43.608;1.458;2022-12-08T03:49:50;15.40;;;10.30;;
47659;SDS011;33403;43.608;1.458;2022-12-08T03:52:16;16.73;;;10.57;;
47659;SDS011;33403;43.608;1.458;2022-12-08T03:54:42;17.93;;;10.53;;
47659;SDS011;33403;43.608;1.458;2022-12-08T03:57:08;14.40;;;9.73;;
47659;SDS011;33403;43.608;1.458;2022-12-08T03:59:34;18.43;;;10.83;;
47659;SDS011;33403;43.608;1.458;2022-12-08T04:02:00;15.60;;;10.17;;
47659;SDS011;33403;43.608;1.458;2022-12-08T04:04:26;15.30;;;10.67;;
47659;SDS011;33403;43.608;1.458;2022-12-08T04:06:52;17.30;;;11.40;;
47659;SDS011;33403;43.608;1.458;2022-12-08T04:09:18;18.13;;;11.13;;
47659;SDS011;33403;43.608;1.458;2022-12-08T04:11:44;17.10;;;10.33;;
47659;SDS011;33403;43.608;1.458;2022-12-08T04:14:10;16.33;;;10.13;;
47659;SDS011;33403;43.608;1.458;2022-12-08T04:16:36;17.90;;;10.77;;
47659;SDS011;33403;43.608;1.458;2022-12-08T04:19:02;17.87;;;11.33;;
47659;SDS011;33403;43.608;1.458;2022-12-08T04:21:28;15.63;;;10.23;;
47659;SDS011;33403;43.608;1.458;2022-12-08T04:23:54;20.97;;;11.83;;
47659;SDS011;33403;43.608;1.458;2022-12-08T04:26:20;17.73;;;10.90;;
47659;SDS011;33403;43.608;1.458;2022-12-08T04:28:46;15.30;;;10.40;;
47659;SDS011;33403;43.608;1.458;2022-12-08T04:31:12;15.17;;;10.10;;
47659;SDS011;33403;43.608;1.458;2022-12-08T04:33:38;17.17;;;10.60;;
47659;SDS011;33403;43.608;1.458;2022-12-08T04:36:05;15.13;;;9.93;;
47659;SDS011;33403;43.608;1.458;2022-12-08T04:38:32;16.20;;;10.47;;
47659;SDS011;33403;43.608;1.458;2022-12-08T04:40:58;15.23;;;11.00;;
47659;SDS011;33403;43.608;1.458;2022-12-08T04:43:24;15.57;;;9.90;;
47659;SDS011;33403;43.608;1.458;2022-12-08T04:45:50;14.80;;;9.47;;
47659;SDS011;33403;43.608;1.458;2022-12-08T04:48:16;16.87;;;10.30;;
47659;SDS011;33403;43.608;1.458;2022-12-08T04:50:43;13.83;;;9.80;;
47659;SDS011;33403;43.608;1.458;2022-12-08T04:53:10;13.57;;;9.27;;
47659;SDS011;33403;43.608;1.458;2022-12-08T04:55:39;13.23;;;9.37;;
47659;SDS011;33403;43.608;1.458;2022-12-08T04:58:06;14.17;;;9.70;;
47659;SDS011;33403;43.608;1.458;2022-12-08T05:00:32;14.40;;;10.03;;
47659;SDS011;33403;43.608;1.458;2022-12-08T05:02:58;18.73;;;9.60;;
47659;SDS011;33403;43.608;1.458;2022-12-08T05:05:24;15.13;;;9.13;;
47659;SDS011;33403;43.608;1.458;2022-12-08T05:07:50;14.57;;;9.20;;
47659;SDS011;33403;43.608;1.458;2022-12-08T05:10:16;13.17;;;9.00;;
47659;SDS011;33403;43.608;1.458;2022-12-08T05:12:42;14.40;;;9.53;;
47659;SDS011;33403;43.608;1.458;2022-12-08T05:15:08;14.57;;;9.30;;
47659;SDS011;33403;43.608;1.458;2022-12-08T05:17:34;12.87;;;9.17;;
47659;SDS011;33403;43.608;1.458;2022-12-08T05:20:00;13.10;;;9.30;;
47659;SDS011;33403;43.608;1.458;2022-12-08T05:22:26;15.03;;;9.27;;
47659;SDS011;33403;43.608;1.458;2022-12-08T05:24:52;15.20;;;9.83;;
47659;SDS011;33403;43.608;1.458;2022-12-08T05:27:18;14.70;;;9.57;;
47659;SDS011;33403;43.608;1.458;2022-12-08T05:29:44;14.33;;;9.30;;
47659;SDS011;33403;43.608;1.458;2022-12-08T05:32:12;13.60;;;9.43;;
47659;SDS011;33403;43.608;1.458;2022-12-08T05:34:38;15.60;;;9.60;;
47659;SDS011;33403;43.608;1.458;2022-12-08T05:37:04;16.83;;;10.33;;
47659;SDS011;33403;43.608;1.458;2022-12-08T05:39:30;13.90;;;9.20;;
47659;SDS011;33403;43.608;1.458;2022-12-08T05:41:56;16.23;;;10.37;;
47659;SDS011;33403;43.608;1.458;2022-12-08T05:44:23;16.83;;;9.60;;
47659;SDS011;33403;43.608;1.458;2022-12-08T05:46:49;16.37;;;10.07;;
47659;SDS011;33403;43.608;1.458;2022-12-08T05:49:15;16.53;;;10.37;;
47659;SDS011;33403;43.608;1.458;2022-12-08T05:51:41;13.67;;;10.00;;
47659;SDS011;33403;43.608;1.458;2022-12-08T05:54:07;14.57;;;9.93;;
47659;SDS011;33403;43.608;1.458;2022-12-08T05:56:33;14.20;;;9.50;;
47659;SDS011;33403;43.608;1.458;2022-12-08T05:58:59;13.93;;;9.33;;
47659;SDS011;33403;43.608;1.458;2022-12-08T06:01:29;16.33;;;10.57;;
47659;SDS011;33403;43.608;1.458;2022-12-08T06:03:56;14.47;;;10.00;;
47659;SDS011;33403;43.608;1.458;2022-12-08T06:06:22;14.70;;;9.27;;
47659;SDS011;33403;43.608;1.458;2022-12-08T06:08:48;16.07;;;10.27;;
47659;SDS011;33403;43.608;1.458;2022-12-08T06:11:19;14.13;;;9.87;;
47659;SDS011;33403;43.608;1.458;2022-12-08T06:13:45;16.17;;;10.73;;
47659;SDS011;33403;43.608;1.458;2022-12-08T06:16:11;14.50;;;9.50;;
47659;SDS011;33403;43.608;1.458;2022-12-08T06:18:37;14.23;;;9.67;;
47659;SDS011;33403;43.608;1.458;2022-12-08T06:21:08;15.03;;;9.40;;
47659;SDS011;33403;43.608;1.458;2022-12-08T06:23:34;15.83;;;10.20;;
47659;SDS011;33403;43.608;1.458;2022-12-08T06:26:01;15.83;;;9.70;;
47659;SDS011;33403;43.608;1.458;2022-12-08T06:28:28;16.37;;;9.90;;
47659;SDS011;33403;43.608;1.458;2022-12-08T06:30:54;16.60;;;9.90;;
47659;SDS011;33403;43.608;1.458;2022-12-08T06:33:20;15.73;;;10.30;;
47659;SDS011;33403;43.608;1.458;2022-12-08T06:35:46;14.03;;;9.50;;
47659;SDS011;33403;43.608;1.458;2022-12-08T06:38:12;15.70;;;10.03;;
47659;SDS011;33403;43.608;1.458;2022-12-08T06:40:38;17.57;;;9.93;;
47659;SDS011;33403;43.608;1.458;2022-12-08T06:43:04;18.40;;;11.23;;
47659;SDS011;33403;43.608;1.458;2022-12-08T06:45:30;18.83;;;10.90;;
47659;SDS011;33403;43.608;1.458;2022-12-08T06:47:56;16.73;;;10.73;;
47659;SDS011;33403;43.608;1.458;2022-12-08T06:50:22;17.30;;;10.93;;
47659;SDS011;33403;43.608;1.458;2022-12-08T06:52:48;18.97;;;11.23;;
47659;SDS011;33403;43.608;1.458;2022-12-08T06:55:14;18.90;;;10.40;;
47659;SDS011;33403;43.608;1.458;2022-12-08T06:57:40;15.00;;;10.50;;
47659;SDS011;33403;43.608;1.458;2022-12-08T07:00:06;18.40;;;10.57;;
47659;SDS011;33403;43.608;1.458;2022-12-08T07:02:32;17.50;;;10.90;;
47659;SDS011;33403;43.608;1.458;2022-12-08T07:04:58;18.40;;;10.67;;
47659;SDS011;33403;43.608;1.458;2022-12-08T07:07:24;17.37;;;11.27;;
47659;SDS011;33403;43.608;1.458;2022-12-08T07:09:50;19.17;;;10.83;;
47659;SDS011;33403;43.608;1.458;2022-12-08T07:12:16;19.70;;;10.93;;
47659;SDS011;33403;43.608;1.458;2022-12-08T07:14:43;18.77;;;11.57;;
47659;SDS011;33403;43.608;1.458;2022-12-08T07:17:08;21.13;;;11.63;;
47659;SDS011;33403;43.608;1.458;2022-12-08T07:19:34;18.83;;;10.70;;
47659;SDS011;33403;43.608;1.458;2022-12-08T07:22:00;19.30;;;11.17;;
47659;SDS011;33403;43.608;1.458;2022-12-08T07:24:26;19.43;;;11.57;;
47659;SDS011;33403;43.608;1.458;2022-12-08T07:26:52;18.63;;;12.00;;
47659;SDS011;33403;43.608;1.458;2022-12-08T07:29:18;19.20;;;12.43;;
47659;SDS011;33403;43.608;1.458;2022-12-08T07:31:45;22.77;;;12.83;;
47659;SDS011;33403;43.608;1.458;2022-12-08T07:34:11;20.97;;;12.33;;
47659;SDS011;33403;43.608;1.458;2022-12-08T07:36:37;19.27;;;11.43;;
47659;SDS011;33403;43.608;1.458;2022-12-08T07:39:03;23.47;;;13.10;;
47659;SDS011;33403;43.608;1.458;2022-12-08T07:41:29;23.67;;;12.67;;
47659;SDS011;33403;43.608;1.458;2022-12-08T07:43:56;22.30;;;12.57;;
47659;SDS011;33403;43.608;1.458;2022-12-08T07:46:22;24.10;;;13.00;;
47659;SDS011;33403;43.608;1.458;2022-12-08T07:48:49;22.40;;;13.07;;
47659;SDS011;33403;43.608;1.458;2022-12-08T07:51:16;24.53;;;13.43;;
47659;SDS011;33403;43.608;1.458;2022-12-08T07:53:43;23.53;;;13.70;;
47659;SDS011;33403;43.608;1.458;2022-12-08T07:56:10;23.23;;;13.23;;
47659;SDS011;33403;43.608;1.458;2022-12-08T07:58:36;26.93;;;14.30;;
47659;SDS011;33403;43.608;1.458;2022-12-08T08:01:03;24.73;;;13.53;;
47659;SDS011;33403;43.608;1.458;2022-12-08T08:03:29;25.73;;;13.57;;
47659;SDS011;33403;43.608;1.458;2022-12-08T08:06:01;23.87;;;13.03;;
47659;SDS011;33403;43.608;1.458;2022-12-08T08:08:27;24.63;;;13.90;;
47659;SDS011;33403;43.608;1.458;2022-12-08T08:10:53;25.90;;;13.77;;
47659;SDS011;33403;43.608;1.458;2022-12-08T08:13:19;26.50;;;12.90;;
47659;SDS011;33403;43.608;1.458;2022-12-08T08:15:45;27.93;;;14.60;;
47659;SDS011;33403;43.608;1.458;2022-12-08T08:18:11;26.33;;;13.93;;
47659;SDS011;33403;43.608;1.458;2022-12-08T08:20:37;25.50;;;13.50;;
47659;SDS011;33403;43.608;1.458;2022-12-08T08:23:03;25.37;;;13.83;;
47659;SDS011;33403;43.608;1.458;2022-12-08T08:25:29;26.17;;;13.23;;
47659;SDS011;33403;43.608;1.458;2022-12-08T08:27:55;25.27;;;14.13;;
47659;SDS011;33403;43.608;1.458;2022-12-08T08:30:21;27.80;;;13.47;;
47659;SDS011;33403;43.608;1.458;2022-12-08T08:32:47;25.40;;;13.87;;
47659;SDS011;33403;43.608;1.458;2022-12-08T08:35:13;25.47;;;13.53;;
47659;SDS011;33403;43.608;1.458;2022-12-08T08:37:40;26.27;;;13.53;;
47659;SDS011;33403;43.608;1.458;2022-12-08T08:40:06;24.37;;;12.80;;
47659;SDS011;33403;43.608;1.458;2022-12-08T08:42:32;22.90;;;11.93;;
47659;SDS011;33403;43.608;1.458;2022-12-08T08:44:58;22.40;;;12.50;;
47659;SDS011;33403;43.608;1.458;2022-12-08T08:47:25;19.17;;;11.57;;
47659;SDS011;33403;43.608;1.458;2022-12-08T08:49:51;19.53;;;11.63;;
47659;SDS011;33403;43.608;1.458;2022-12-08T08:52:17;20.20;;;11.57;;
47659;SDS011;33403;43.608;1.458;2022-12-08T08:54:43;22.63;;;12.10;;
47659;SDS011;33403;43.608;1.458;2022-12-08T08:57:09;20.15;;;11.50;;
47659;SDS011;33403;43.608;1.458;2022-12-08T08:59:35;19.73;;;11.30;;
47659;SDS011;33403;43.608;1.458;2022-12-08T09:02:01;16.67;;;10.37;;
47659;SDS011;33403;43.608;1.458;2022-12-08T09:04:27;16.67;;;10.40;;
47659;SDS011;33403;43.608;1.458;2022-12-08T09:06:53;16.95;;;10.27;;
47659;SDS011;33403;43.608;1.458;2022-12-08T09:09:19;17.58;;;10.10;;
47659;SDS011;33403;43.608;1.458;2022-12-08T09:11:45;18.17;;;10.43;;
47659;SDS011;33403;43.608;1.458;2022-12-08T09:14:11;15.83;;;9.90;;
47659;SDS011;33403;43.608;1.458;2022-12-08T09:16:38;16.60;;;10.23;;
47659;SDS011;33403;43.608;1.458;2022-12-08T09:19:04;17.17;;;10.43;;
47659;SDS011;33403;43.608;1.458;2022-12-08T09:21:30;17.83;;;9.80;;
47659;SDS011;33403;43.608;1.458;2022-12-08T09:23:57;14.73;;;9.35;;
47659;SDS011;33403;43.608;1.458;2022-12-08T09:26:23;15.53;;;9.43;;
47659;SDS011;33403;43.608;1.458;2022-12-08T09:28:50;15.70;;;9.53;;
47659;SDS011;33403;43.608;1.458;2022-12-08T09:31:17;14.43;;;9.47;;
47659;SDS011;33403;43.608;1.458;2022-12-08T09:33:44;14.47;;;9.10;;
47659;SDS011;33403;43.608;1.458;2022-12-08T09:36:10;14.80;;;9.23;;
47659;SDS011;33403;43.608;1.458;2022-12-08T09:38:36;13.83;;;8.83;;
47659;SDS011;33403;43.608;1.458;2022-12-08T09:41:03;12.57;;;7.87;;
47659;SDS011;33403;43.608;1.458;2022-12-08T09:45:56;13.93;;;8.18;;
47659;SDS011;33403;43.608;1.458;2022-12-08T09:48:23;12.15;;;7.82;;
47659;SDS011;33403;43.608;1.458;2022-12-08T09:50:51;11.27;;;7.78;;
47659;SDS011;33403;43.608;1.458;2022-12-08T09:53:19;12.98;;;7.90;;
47659;SDS011;33403;43.608;1.458;2022-12-08T09:55:56;12.38;;;7.22;;
47659;SDS011;33403;43.608;1.458;2022-12-08T10:01:10;10.25;;;6.90;;
47659;SDS011;33403;43.608;1.458;2022-12-08T10:03:36;9.77;;;6.87;;
47659;SDS011;33403;43.608;1.458;2022-12-08T10:08:42;9.40;;;6.57;;
47659;SDS011;33403;43.608;1.458;2022-12-08T10:11:13;9.27;;;6.05;;
47659;SDS011;33403;43.608;1.458;2022-12-08T10:13:45;8.50;;;5.80;;
47659;SDS011;33403;43.608;1.458;2022-12-08T10:16:17;8.30;;;5.80;;
47659;SDS011;33403;43.608;1.458;2022-12-08T10:18:45;8.18;;;5.95;;
47659;SDS011;33403;43.608;1.458;2022-12-08T10:21:14;9.98;;;6.03;;
47659;SDS011;33403;43.608;1.458;2022-12-08T10:23:41;8.07;;;5.47;;
47659;SDS011;33403;43.608;1.458;2022-12-08T10:26:12;9.48;;;5.95;;
47659;SDS011;33403;43.608;1.458;2022-12-08T10:28:39;10.18;;;5.90;;
47659;SDS011;33403;43.608;1.458;2022-12-08T10:31:05;7.82;;;5.50;;
47659;SDS011;33403;43.608;1.458;2022-12-08T10:33:31;8.63;;;5.75;;
47659;SDS011;33403;43.608;1.458;2022-12-08T10:35:58;9.80;;;6.45;;
47659;SDS011;33403;43.608;1.458;2022-12-08T10:38:29;9.50;;;6.47;;
47659;SDS011;33403;43.608;1.458;2022-12-08T10:41:09;8.57;;;5.90;;
47659;SDS011;33403;43.608;1.458;2022-12-08T10:43:38;9.43;;;5.68;;
47659;SDS011;33403;43.608;1.458;2022-12-08T10:46:07;8.63;;;6.03;;
47659;SDS011;33403;43.608;1.458;2022-12-08T10:48:34;9.15;;;5.95;;
47659;SDS011;33403;43.608;1.458;2022-12-08T10:51:00;7.57;;;5.43;;
47659;SDS011;33403;43.608;1.458;2022-12-08T10:53:32;7.65;;;4.90;;
47659;SDS011;33403;43.608;1.458;2022-12-08T10:58:35;6.78;;;4.78;;
47659;SDS011;33403;43.608;1.458;2022-12-08T11:03:34;7.53;;;5.22;;
47659;SDS011;33403;43.608;1.458;2022-12-08T11:06:08;7.57;;;4.68;;
47659;SDS011;33403;43.608;1.458;2022-12-08T11:08:34;6.55;;;4.85;;
47659;SDS011;33403;43.608;1.458;2022-12-08T11:11:08;6.72;;;4.80;;
47659;SDS011;33403;43.608;1.458;2022-12-08T11:13:37;7.78;;;4.60;;
47659;SDS011;33403;43.608;1.458;2022-12-08T11:16:05;6.70;;;4.68;;
47659;SDS011;33403;43.608;1.458;2022-12-08T11:18:38;6.25;;;4.20;;
47659;SDS011;33403;43.608;1.458;2022-12-08T11:21:06;6.95;;;4.50;;
47659;SDS011;33403;43.608;1.458;2022-12-08T11:23:34;5.65;;;4.07;;
47659;SDS011;33403;43.608;1.458;2022-12-08T11:26:02;4.72;;;3.75;;
47659;SDS011;33403;43.608;1.458;2022-12-08T11:28:29;5.63;;;4.15;;
47659;SDS011;33403;43.608;1.458;2022-12-08T11:31:03;5.72;;;4.40;;
47659;SDS011;33403;43.608;1.458;2022-12-08T11:33:31;5.80;;;4.05;;
47659;SDS011;33403;43.608;1.458;2022-12-08T11:36:02;6.05;;;4.50;;
47659;SDS011;33403;43.608;1.458;2022-12-08T11:38:29;8.55;;;5.03;;
47659;SDS011;33403;43.608;1.458;2022-12-08T11:41:06;6.03;;;4.13;;
47659;SDS011;33403;43.608;1.458;2022-12-08T11:46:01;6.03;;;4.43;;
47659;SDS011;33403;43.608;1.458;2022-12-08T11:51:01;6.65;;;4.30;;
47659;SDS011;33403;43.608;1.458;2022-12-08T11:58:48;7.55;;;4.88;;
47659;SDS011;33403;43.608;1.458;2022-12-08T12:01:17;6.57;;;4.90;;
47659;SDS011;33403;43.608;1.458;2022-12-08T12:03:45;7.40;;;4.80;;
47659;SDS011;33403;43.608;1.458;2022-12-08T12:19:58;7.05;;;4.70;;
47659;SDS011;33403;43.608;1.458;2022-12-08T12:22:27;7.32;;;4.80;;
47659;SDS011;33403;43.608;1.458;2022-12-08T12:24:56;7.05;;;5.43;;
47659;SDS011;33403;43.608;1.458;2022-12-08T12:27:24;7.13;;;5.05;;
47659;SDS011;33403;43.608;1.458;2022-12-08T12:29:53;7.80;;;4.95;;
47659;SDS011;33403;43.608;1.458;2022-12-08T12:32:20;7.78;;;4.95;;
47659;SDS011;33403;43.608;1.458;2022-12-08T12:37:17;6.47;;;4.38;;
47659;SDS011;33403;43.608;1.458;2022-12-08T12:45:43;6.50;;;4.80;;
47659;SDS011;33403;43.608;1.458;2022-12-08T12:47:51;7.18;;;5.10;;
47659;SDS011;33403;43.608;1.458;2022-12-08T12:51:03;6.30;;;4.72;;
47659;SDS011;33403;43.608;1.458;2022-12-08T12:58:22;7.18;;;4.80;;
47659;SDS011;33403;43.608;1.458;2022-12-08T13:03:33;7.10;;;4.70;;
47659;SDS011;33403;43.608;1.458;2022-12-08T13:05:59;6.25;;;4.75;;
47659;SDS011;33403;43.608;1.458;2022-12-08T13:08:25;6.85;;;4.60;;
47659;SDS011;33403;43.608;1.458;2022-12-08T13:11:02;6.32;;;4.80;;
47659;SDS011;33403;43.608;1.458;2022-12-08T13:13:29;7.07;;;4.63;;
47659;SDS011;33403;43.608;1.458;2022-12-08T13:16:12;7.47;;;4.88;;
47659;SDS011;33403;43.608;1.458;2022-12-08T13:18:40;6.90;;;4.72;;
47659;SDS011;33403;43.608;1.458;2022-12-08T13:34:52;6.70;;;4.93;;
47659;SDS011;33403;43.608;1.458;2022-12-08T13:36:58;8.13;;;4.80;;
47659;SDS011;33403;43.608;1.458;2022-12-08T13:39:27;7.88;;;5.10;;
47659;SDS011;33403;43.608;1.458;2022-12-08T13:41:59;5.75;;;4.30;;
47659;SDS011;33403;43.608;1.458;2022-12-08T13:44:35;6.97;;;5.10;;
47659;SDS011;33403;43.608;1.458;2022-12-08T13:47:02;6.95;;;5.03;;
47659;SDS011;33403;43.608;1.458;2022-12-08T13:49:32;6.07;;;4.72;;
47659;SDS011;33403;43.608;1.458;2022-12-08T13:51:59;7.80;;;5.00;;
47659;SDS011;33403;43.608;1.458;2022-12-08T13:54:33;8.35;;;5.40;;
47659;SDS011;33403;43.608;1.458;2022-12-08T13:56:59;8.25;;;5.43;;
47659;SDS011;33403;43.608;1.458;2022-12-08T14:01:55;7.57;;;4.95;;
47659;SDS011;33403;43.608;1.458;2022-12-08T14:04:22;6.82;;;4.88;;
47659;SDS011;33403;43.608;1.458;2022-12-08T14:06:49;7.90;;;5.18;;
47659;SDS011;33403;43.608;1.458;2022-12-08T14:09:17;7.15;;;4.93;;
47659;SDS011;33403;43.608;1.458;2022-12-08T14:11:45;6.80;;;4.93;;
47659;SDS011;33403;43.608;1.458;2022-12-08T14:14:22;6.20;;;4.75;;
47659;SDS011;33403;43.608;1.458;2022-12-08T14:17:22;8.57;;;4.93;;
47659;SDS011;33403;43.608;1.458;2022-12-08T14:19:42;7.63;;;5.25;;
47659;SDS011;33403;43.608;1.458;2022-12-08T14:22:12;7.28;;;5.15;;
47659;SDS011;33403;43.608;1.458;2022-12-08T14:24:43;7.80;;;5.13;;
47659;SDS011;33403;43.608;1.458;2022-12-08T14:27:10;7.97;;;5.35;;
47659;SDS011;33403;43.608;1.458;2022-12-08T14:35:30;8.32;;;5.80;;
47659;SDS011;33403;43.608;1.458;2022-12-08T14:37:37;9.30;;;5.40;;
47659;SDS011;33403;43.608;1.458;2022-12-08T14:40:05;7.95;;;5.38;;
47659;SDS011;33403;43.608;1.458;2022-12-08T14:42:40;7.63;;;5.53;;
47659;SDS011;33403;43.608;1.458;2022-12-08T14:45:09;7.38;;;5.03;;
47659;SDS011;33403;43.608;1.458;2022-12-08T14:47:36;7.68;;;5.45;;
47659;SDS011;33403;43.608;1.458;2022-12-08T14:50:04;9.18;;;5.63;;
47659;SDS011;33403;43.608;1.458;2022-12-08T14:52:48;8.25;;;5.10;;
47659;SDS011;33403;43.608;1.458;2022-12-08T14:55:14;8.63;;;5.18;;
47659;SDS011;33403;43.608;1.458;2022-12-08T14:57:41;8.57;;;5.63;;
47659;SDS011;33403;43.608;1.458;2022-12-08T15:00:08;9.30;;;5.70;;
47659;SDS011;33403;43.608;1.458;2022-12-08T15:02:42;9.80;;;6.07;;
47659;SDS011;33403;43.608;1.458;2022-12-08T15:05:19;9.38;;;5.72;;
47659;SDS011;33403;43.608;1.458;2022-12-08T15:07:52;7.97;;;5.22;;
47659;SDS011;33403;43.608;1.458;2022-12-08T15:10:20;10.40;;;6.20;;
47659;SDS011;33403;43.608;1.458;2022-12-08T15:15:25;9.45;;;6.35;;
47659;SDS011;33403;43.608;1.458;2022-12-08T15:18:00;10.00;;;6.88;;
47659;SDS011;33403;43.608;1.458;2022-12-08T15:22:55;9.88;;;6.43;;
47659;SDS011;33403;43.608;1.458;2022-12-08T15:25:22;9.07;;;6.25;;
47659;SDS011;33403;43.608;1.458;2022-12-08T15:27:49;10.98;;;6.28;;
47659;SDS011;33403;43.608;1.458;2022-12-08T15:30:17;10.75;;;6.30;;
47659;SDS011;33403;43.608;1.458;2022-12-08T15:32:43;10.40;;;6.85;;
47659;SDS011;33403;43.608;1.458;2022-12-08T15:35:13;11.90;;;6.65;;
47659;SDS011;33403;43.608;1.458;2022-12-08T15:37:39;10.10;;;6.57;;
47659;SDS011;33403;43.608;1.458;2022-12-08T15:40:06;11.65;;;7.00;;
47659;SDS011;33403;43.608;1.458;2022-12-08T15:42:35;11.32;;;6.65;;
47659;SDS011;33403;43.608;1.458;2022-12-08T15:45:01;11.18;;;6.88;;
47659;SDS011;33403;43.608;1.458;2022-12-08T15:47:33;11.15;;;6.82;;
47659;SDS011;33403;43.608;1.458;2022-12-08T15:49:59;11.18;;;6.82;;
47659;SDS011;33403;43.608;1.458;2022-12-08T15:52:28;11.95;;;7.22;;
47659;SDS011;33403;43.608;1.458;2022-12-08T15:54:54;10.90;;;6.35;;
47659;SDS011;33403;43.608;1.458;2022-12-08T15:57:27;11.93;;;7.70;;
47659;SDS011;33403;43.608;1.458;2022-12-08T15:59:54;10.32;;;6.70;;
47659;SDS011;33403;43.608;1.458;2022-12-08T16:02:20;13.20;;;6.88;;
47659;SDS011;33403;43.608;1.458;2022-12-08T16:04:46;11.55;;;6.90;;
47659;SDS011;33403;43.608;1.458;2022-12-08T16:07:26;12.35;;;7.20;;
47659;SDS011;33403;43.608;1.458;2022-12-08T16:09:52;13.23;;;7.65;;
47659;SDS011;33403;43.608;1.458;2022-12-08T16:12:22;12.10;;;7.60;;
47659;SDS011;33403;43.608;1.458;2022-12-08T16:15:07;9.93;;;6.95;;
47659;SDS011;33403;43.608;1.458;2022-12-08T16:17:34;10.68;;;6.43;;